Mills, Kentucky
Current Conditions -  °F | °C
As of 2:55 AM on Wednesday 22 Oct 2014 (Local Time) from K1A6 Reporting Station
Overcast Overcast  
Wind Chill: 48°   Ceiling: 4800
Heat Index: 48°   Visibility: 10mi
Dew Point: 41°   Wind: 3mph
Humidity: 78%   Direction: 360°N
Pressure: 30.12"   Gusts: NA
Location:  36.8337°N, 83.7599°W
Report Text: K1A6 220655Z AUTO 36003KT 10SM SCT024 OVC048 09/05 A3012 RMK AO2 T00880052
Loading
Personal Weather Stations






























Interactive Weather Map
Tropical Storm Tracking
New forecast layout! Learn more

10-Day Weather Forecast

Advertisements
Track Severe Weather on mobile